Time;durP1;ratioP1;P1;durP2;ratioP2;P2;SDS_P1;SDS_P2;PMS_P1;PMS_P2;Temp;Humidity;BMP_temperature;BMP_pressure;BME280_temperature;BME280_humidity;BME280_pressure;Samples;Min_cycle;Max_cycle;Signal;HPM_P1;HPM_P2
2022/02/28 03:45:29;;;;;;;43.53;19.73;;;1.50;89.60;;;;;;6223466;22;20997;-81
2022/02/28 03:47:54;;;;;;;50.85;21.75;;;1.50;89.40;;;;;;6264571;22;20015;-80
2022/02/28 03:50:40;;;;;;;49.38;20.15;;;1.50;89.20;;;;;;6273235;22;20063;-80
2022/02/28 03:53:08;;;;;;;45.47;19.92;;;1.50;89.20;;;;;;6290392;22;20007;-80
2022/02/28 03:55:36;;;;;;;42.97;19.85;;;1.50;89.50;;;;;;6291009;22;20145;-80
2022/02/28 03:58:03;;;;;;;49.00;20.73;;;1.60;89.10;;;;;;6264973;22;20009;-80
2022/02/28 04:00:30;;;;;;;48.22;20.45;;;1.50;89.20;;;;;;6240927;22;20007;-80
2022/02/28 04:02:56;;;;;;;46.78;21.48;;;1.50;89.10;;;;;;6265047;22;20048;-80
2022/02/28 04:05:25;;;;;;;42.47;20.55;;;1.50;89.30;;;;;;6290724;22;20023;-81
2022/02/28 04:07:52;;;;;;;45.90;20.98;;;1.50;89.10;;;;;;6240299;22;20015;-80
2022/02/28 04:10:17;;;;;;;44.55;20.77;;;1.50;88.90;;;;;;6264726;22;20011;-80
2022/02/28 04:12:43;;;;;;;48.33;20.20;;;1.50;89.30;;;;;;6290424;22;20228;-80
2022/02/28 04:15:10;;;;;;;46.13;21.73;;;1.40;89.00;;;;;;6265072;22;20034;-79
2022/02/28 04:17:37;;;;;;;44.65;20.60;;;1.50;88.90;;;;;;6290621;22;20026;-80
2022/02/28 04:20:26;;;;;;;54.45;20.83;;;1.40;88.80;;;;;;6233096;23;20522;-78
2022/02/28 04:22:52;;;;;;;44.72;20.88;;;1.40;89.00;;;;;;6228777;23;20004;-80
2022/02/28 04:25:18;;;;;;;43.77;20.70;;;1.40;88.90;;;;;;6228148;23;20013;-80
2022/02/28 04:27:44;;;;;;;42.80;19.80;;;1.40;88.50;;;;;;6253824;23;20004;-80
2022/02/28 04:30:13;;;;;;;38.63;19.83;;;1.40;88.40;;;;;;6229180;23;20012;-80
2022/02/28 04:32:42;;;;;;;44.28;21.70;;;1.40;88.20;;;;;;6228585;23;20071;-79
2022/02/28 04:35:09;;;;;;;40.35;19.73;;;1.50;88.10;;;;;;6228557;23;20061;-80
2022/02/28 04:37:38;;;;;;;41.70;19.45;;;1.50;88.00;;;;;;6229053;23;20232;-80
2022/02/28 04:40:07;;;;;;;40.40;19.70;;;1.50;88.00;;;;;;6228242;23;20055;-81
2022/02/28 04:42:35;;;;;;;45.58;19.88;;;1.40;88.10;;;;;;6228952;23;20008;-80
2022/02/28 04:45:02;;;;;;;40.63;19.55;;;1.40;88.50;;;;;;6222922;23;20047;-80
2022/02/28 04:47:28;;;;;;;48.75;21.05;;;1.40;88.50;;;;;;6197323;23;20320;-79
2022/02/28 04:50:12;;;;;;;39.72;20.45;;;1.30;88.40;;;;;;6201870;23;20387;-79
2022/02/28 04:52:40;;;;;;;47.55;22.02;;;1.30;88.30;;;;;;6173224;23;20020;-79
2022/02/28 04:55:06;;;;;;;45.00;20.40;;;1.40;88.10;;;;;;6223080;23;20227;-80
2022/02/28 04:57:44;;;;;;;45.90;19.87;;;1.30;88.30;;;;;;6189607;23;20015;-79
2022/02/28 05:00:17;;;;;;;44.78;20.60;;;1.30;88.30;;;;;;6227627;23;20223;-80
2022/02/28 05:02:48;;;;;;;42.63;20.73;;;1.30;88.10;;;;;;6227959;23;20347;-80
2022/02/28 05:05:21;;;;;;;48.00;21.27;;;1.30;88.00;;;;;;6227913;23;20350;-81
2022/02/28 05:07:47;;;;;;;39.13;19.42;;;1.30;88.20;;;;;;6227757;23;20031;-81
2022/02/28 05:10:13;;;;;;;44.15;21.05;;;1.20;88.10;;;;;;6202193;23;20216;-81
2022/02/28 05:12:39;;;;;;;46.22;19.48;;;1.20;88.10;;;;;;6202166;23;20008;-80
2022/02/28 05:15:06;;;;;;;51.20;20.95;;;1.20;88.00;;;;;;6232370;22;20039;-81
2022/02/28 05:17:32;;;;;;;40.13;17.02;;;1.20;87.80;;;;;;6233862;22;20007;-78
2022/02/28 05:19:58;;;;;;;45.40;19.05;;;1.20;87.70;;;;;;6284469;22;20004;-79
2022/02/28 05:22:24;;;;;;;39.22;19.52;;;1.20;87.50;;;;;;6259027;22;20045;-80
2022/02/28 05:24:53;;;;;;;42.25;20.05;;;1.10;87.30;;;;;;6235172;22;20059;-80
2022/02/28 05:27:20;;;;;;;;;;;1.10;87.50;;;;;;6234490;22;20008;-80
2022/02/28 05:29:46;;;;;;;42.57;18.23;;;1.10;87.80;;;;;;6258634;22;19914;-81
2022/02/28 05:32:15;;;;;;;42.58;19.52;;;1.10;87.70;;;;;;6259338;22;20234;-80
2022/02/28 05:35:12;;;;;;;43.40;18.63;;;1.10;87.70;;;;;;6284861;22;20222;-81
2022/02/28 05:38:10;;;;;;;41.92;18.88;;;1.10;87.50;;;;;;6162441;23;20009;-81
2022/02/28 05:40:38;;;;;;;41.90;18.63;;;1.10;87.20;;;;;;6186864;23;20037;-80
2022/02/28 05:43:06;;;;;;;39.35;18.85;;;1.10;87.20;;;;;;6161801;23;20064;-81
2022/02/28 05:45:35;;;;;;;35.25;18.75;;;1.10;87.10;;;;;;6162232;23;20010;-81
2022/02/28 05:48:19;;;;;;;45.92;20.55;;;1.10;87.00;;;;;;6162513;23;20039;-79
2022/02/28 05:50:46;;;;;;;45.65;19.48;;;1.20;86.90;;;;;;6162479;23;20301;-80
2022/02/28 05:53:12;;;;;;;39.85;19.08;;;1.20;86.80;;;;;;6187157;23;20137;-79
2022/02/28 05:55:38;;;;;;;40.10;19.55;;;1.20;86.60;;;;;;6162441;23;20060;-80
2022/02/28 05:58:04;;;;;;;35.92;16.80;;;1.20;86.40;;;;;;6162280;23;20025;-79
2022/02/28 06:00:31;;;;;;;34.60;16.47;;;1.20;86.20;;;;;;6187381;23;20024;-79
2022/02/28 06:02:58;;;;;;;43.45;20.40;;;1.30;86.00;;;;;;6162151;23;20293;-79
2022/02/28 06:05:24;;;;;;;39.25;17.33;;;1.30;85.80;;;;;;6161915;23;20069;-81
2022/02/28 06:07:50;;;;;;;40.00;17.90;;;1.30;85.60;;;;;;6161836;23;20186;-81
2022/02/28 06:10:16;;;;;;;37.90;16.90;;;1.30;85.40;;;;;;6162399;23;20021;-79
2022/02/28 06:12:42;;;;;;;36.70;18.13;;;1.40;85.30;;;;;;6171988;22;20005;-81
2022/02/28 06:15:09;;;;;;;33.97;17.00;;;1.40;85.10;;;;;;6258429;22;20334;-81
2022/02/28 06:17:35;;;;;;;33.13;16.95;;;1.40;85.20;;;;;;6258578;22;20079;-81
2022/02/28 06:20:05;;;;;;;36.75;17.20;;;1.40;84.90;;;;;;6233393;22;20061;-80
2022/02/28 06:22:31;;;;;;;31.88;17.55;;;1.50;84.80;;;;;;6258545;22;20000;-80
2022/02/28 06:24:59;;;;;;;35.33;17.30;;;1.50;84.50;;;;;;6260933;22;20032;-81
2022/02/28 06:27:25;;;;;;;41.08;16.30;;;1.60;84.40;;;;;;6235417;22;20300;-80
2022/02/28 06:29:51;;;;;;;37.35;16.95;;;1.60;84.40;;;;;;6260700;22;20012;-79
2022/02/28 06:32:19;;;;;;;33.80;17.50;;;1.70;84.00;;;;;;6260284;22;20008;-79
2022/02/28 06:34:45;;;;;;;33.55;17.13;;;1.80;83.30;;;;;;6260252;22;20017;-80
2022/02/28 06:37:11;;;;;;;34.42;17.13;;;1.90;83.00;;;;;;6260616;22;20007;-80
2022/02/28 06:39:37;;;;;;;33.55;17.58;;;1.90;83.30;;;;;;6235005;22;20031;-80
2022/02/28 06:42:05;;;;;;;25.80;14.65;;;1.90;82.60;;;;;;6260369;22;20000;-80
2022/02/28 06:44:31;;;;;;;31.70;15.20;;;2.00;82.30;;;;;;6260779;22;20012;-79
2022/02/28 06:46:58;;;;;;;32.30;16.52;;;2.10;82.30;;;;;;6258599;22;20014;-80
2022/02/28 06:49:23;;;;;;;36.15;16.88;;;2.10;82.00;;;;;;6258799;22;20347;-78
2022/02/28 06:51:49;;;;;;;40.58;19.17;;;2.20;81.50;;;;;;6259250;22;20010;-79
2022/02/28 06:54:15;;;;;;;34.53;17.48;;;2.30;81.40;;;;;;6258784;22;20016;-80
2022/02/28 06:56:42;;;;;;;32.53;15.93;;;2.50;80.60;;;;;;6233592;22;20027;-79
2022/02/28 06:59:08;;;;;;;38.15;18.27;;;2.60;79.60;;;;;;6258493;22;20014;-80
2022/02/28 07:01:37;;;;;;;33.55;16.67;;;2.70;78.90;;;;;;6259297;22;20012;-80
2022/02/28 07:04:38;;;;;;;26.95;14.23;;;2.80;78.70;;;;;;6204474;23;20017;-80
2022/02/28 07:07:05;;;;;;;30.73;15.57;;;3.00;76.40;;;;;;6196957;23;20099;-78
2022/02/28 07:09:31;;;;;;;28.35;14.70;;;3.00;75.80;;;;;;6172232;23;20035;-79
2022/02/28 07:11:57;;;;;;;33.08;14.57;;;3.10;75.00;;;;;;6196584;23;20016;-79
2022/02/28 07:14:22;;;;;;;29.75;14.85;;;3.20;75.40;;;;;;6171814;23;20019;-78
2022/02/28 07:16:48;;;;;;;26.08;13.40;;;3.30;74.60;;;;;;6172054;23;20219;-78
2022/02/28 07:19:14;;;;;;;30.23;13.95;;;3.40;74.40;;;;;;6172344;23;20015;-80
2022/02/28 07:21:40;;;;;;;28.85;15.35;;;3.50;74.30;;;;;;6147597;23;20370;-80
2022/02/28 07:24:06;;;;;;;28.23;14.65;;;3.50;73.60;;;;;;6196638;23;20012;-80
2022/02/28 07:26:33;;;;;;;29.80;15.40;;;3.60;74.40;;;;;;6222109;23;20019;-79
2022/02/28 07:28:59;;;;;;;30.30;15.05;;;3.70;74.30;;;;;;6172349;23;20193;-80
2022/02/28 07:31:26;;;;;;;33.65;15.95;;;3.70;73.80;;;;;;6221114;23;20047;-80
2022/02/28 07:33:51;;;;;;;31.30;16.35;;;3.70;73.70;;;;;;6196769;23;20030;-80
2022/02/28 07:36:17;;;;;;;34.47;17.08;;;3.70;73.90;;;;;;6196725;23;20062;-80
2022/02/28 07:38:43;;;;;;;28.25;15.20;;;3.60;73.80;;;;;;6268861;22;20230;-79
2022/02/28 07:41:09;;;;;;;30.40;15.45;;;3.50;73.60;;;;;;6258246;22;20057;-80
2022/02/28 07:43:35;;;;;;;30.23;15.02;;;3.50;73.90;;;;;;6258059;22;20199;-78
2022/02/28 07:46:01;;;;;;;30.40;15.30;;;3.50;73.70;;;;;;6283335;22;20023;-79
2022/02/28 07:48:28;;;;;;;32.17;15.55;;;3.50;73.60;;;;;;6233013;22;20204;-79
2022/02/28 07:50:54;;;;;;;34.75;15.98;;;3.60;74.10;;;;;;6258297;22;20000;-78
2022/02/28 07:53:20;;;;;;;27.33;15.40;;;3.60;74.00;;;;;;6232625;22;20015;-79
2022/02/28 07:55:46;;;;;;;29.27;13.90;;;3.60;73.90;;;;;;6258888;22;20063;-81
2022/02/28 07:58:13;;;;;;;37.17;16.38;;;3.50;73.40;;;;;;6284084;22;20015;-80
2022/02/28 08:00:38;;;;;;;26.35;14.13;;;3.40;73.80;;;;;;6258979;22;20173;-80
2022/02/28 08:03:04;;;;;;;29.33;15.75;;;3.40;73.50;;;;;;6258385;22;20312;-78
2022/02/28 08:05:30;;;;;;;28.75;14.68;;;3.40;73.10;;;;;;6258798;22;20054;-78
2022/02/28 08:07:56;;;;;;;29.65;15.45;;;3.40;73.20;;;;;;6233079;22;20008;-80
2022/02/28 08:10:23;;;;;;;26.75;13.80;;;3.50;72.90;;;;;;6258664;22;20007;-79
2022/02/28 08:12:49;;;;;;;33.20;12.68;;;3.60;72.70;;;;;;6258600;22;20291;-79
2022/02/28 08:15:15;;;;;;;24.33;9.90;;;3.70;69.60;;;;;;6258464;22;20015;-79
2022/02/28 08:17:42;;;;;;;15.83;7.57;;;3.80;65.60;;;;;;6233737;22;20083;-78
2022/02/28 08:20:09;;;;;;;21.55;8.68;;;3.80;63.10;;;;;;6258506;22;20018;-79
2022/02/28 08:22:35;;;;;;;21.27;9.35;;;3.80;63.20;;;;;;6233422;22;20012;-80
2022/02/28 08:25:01;;;;;;;19.52;9.25;;;3.70;63.30;;;;;;6284215;22;20035;-80
2022/02/28 08:27:27;;;;;;;21.73;8.93;;;3.80;63.40;;;;;;6258480;22;20272;-80
2022/02/28 08:29:54;;;;;;;17.10;9.88;;;3.80;62.90;;;;;;6258724;22;20070;-80
2022/02/28 08:32:20;;;;;;;18.75;9.35;;;3.80;62.60;;;;;;6233298;22;20022;-80
2022/02/28 08:34:45;;;;;;;20.42;8.50;;;3.70;62.10;;;;;;6258279;22;20019;-80
2022/02/28 08:37:12;;;;;;;27.45;11.15;;;3.70;62.80;;;;;;6258437;22;19999;-79
2022/02/28 08:39:38;;;;;;;21.57;10.60;;;3.80;62.80;;;;;;6258769;22;20169;-78
2022/02/28 08:42:04;;;;;;;19.48;9.98;;;3.90;62.40;;;;;;6284203;22;20071;-80
2022/02/28 08:44:30;;;;;;;23.42;11.00;;;3.90;62.60;;;;;;6258375;22;20019;-80
2022/02/28 08:46:57;;;;;;;21.95;9.82;;;4.00;62.30;;;;;;6257796;22;20020;-79
2022/02/28 08:49:23;;;;;;;23.42;10.82;;;4.10;62.20;;;;;;6233198;22;20203;-79
2022/02/28 08:51:49;;;;;;;21.20;10.07;;;4.20;63.10;;;;;;6258618;22;20011;-80
2022/02/28 08:54:15;;;;;;;21.35;10.40;;;4.30;61.40;;;;;;6258914;22;20039;-80
2022/02/28 08:56:41;;;;;;;18.80;9.27;;;4.40;61.60;;;;;;6285076;22;20007;-80
2022/02/28 08:59:07;;;;;;;25.35;9.90;;;4.50;60.80;;;;;;6258369;22;20019;-79
2022/02/28 09:01:33;;;;;;;23.25;10.43;;;4.60;60.00;;;;;;6258343;22;20008;-78
2022/02/28 09:03:59;;;;;;;19.17;10.03;;;4.70;60.80;;;;;;6233316;22;20008;-80
2022/02/28 09:06:26;;;;;;;23.02;10.43;;;4.80;60.50;;;;;;6284931;22;20012;-80
2022/02/28 09:08:52;;;;;;;20.38;10.25;;;4.90;60.10;;;;;;6232414;22;20030;-79
2022/02/28 09:11:17;;;;;;;23.45;10.40;;;5.10;60.30;;;;;;6232763;22;20012;-79
2022/02/28 09:13:43;;;;;;;33.53;10.98;;;5.20;59.40;;;;;;6232802;22;20278;-79
2022/02/28 09:16:09;;;;;;;21.65;9.75;;;5.10;59.50;;;;;;6257954;22;20072;-78
2022/02/28 09:18:35;;;;;;;24.08;10.77;;;5.00;59.30;;;;;;6258292;22;20083;-78
2022/02/28 09:21:01;;;;;;;20.58;9.73;;;5.00;59.10;;;;;;6258205;22;20003;-78
2022/02/28 09:23:27;;;;;;;22.55;10.57;;;5.20;58.90;;;;;;6257820;22;20304;-80
2022/02/28 09:25:53;;;;;;;18.70;9.55;;;5.20;58.20;;;;;;6257753;22;20027;-80
2022/02/28 09:28:19;;;;;;;26.40;9.60;;;5.20;57.80;;;;;;6258230;22;20007;-80
2022/02/28 09:30:44;;;;;;;24.27;10.45;;;5.30;59.00;;;;;;6232996;22;20023;-80
2022/02/28 09:33:11;;;;;;;22.10;9.00;;;5.50;58.30;;;;;;6232758;22;20066;-80
2022/02/28 09:35:37;;;;;;;25.10;10.15;;;5.80;57.30;;;;;;6257793;22;20015;-78
2022/02/28 09:38:14;;;;;;;;;;;5.70;55.60;;;;;;6260933;22;20075;-80
2022/02/28 09:40:42;;;;;;;18.75;8.52;;;5.60;54.30;;;;;;6257834;22;19907;-79
2022/02/28 09:43:27;;;;;;;24.58;7.72;;;5.40;55.00;;;;;;6283516;22;20039;-79
2022/02/28 09:46:12;;;;;;;16.50;8.02;;;5.60;55.40;;;;;;6283355;22;20050;-80
2022/02/28 09:48:59;;;;;;;16.05;7.57;;;5.70;54.90;;;;;;6209718;23;20016;-79
2022/02/28 09:52:04;;;;;;;22.88;8.20;;;5.70;54.40;;;;;;6191765;23;20017;-79
2022/02/28 09:54:49;;;;;;;19.70;9.30;;;5.50;53.50;;;;;;6191535;23;20227;-79
2022/02/28 09:57:34;;;;;;;19.27;8.55;;;5.50;54.60;;;;;;6191251;23;20242;-80
2022/02/28 10:00:22;;;;;;;21.85;8.90;;;5.40;53.90;;;;;;6188704;23;20013;-79
2022/02/28 10:02:53;;;;;;;23.80;8.85;;;5.40;54.00;;;;;;6190924;23;20069;-80
2022/02/28 10:05:20;;;;;;;27.70;11.40;;;5.30;54.30;;;;;;6191120;23;20013;-80
2022/02/28 10:07:54;;;;;;;29.98;10.70;;;5.40;55.40;;;;;;6190890;23;20395;-79
2022/02/28 10:10:22;;;;;;;18.90;10.13;;;5.40;54.70;;;;;;6190934;23;20267;-79
2022/02/28 10:12:49;;;;;;;24.63;10.45;;;5.50;54.80;;;;;;6190099;23;20073;-80
2022/02/28 10:15:21;;;;;;;28.40;11.63;;;5.60;55.30;;;;;;6190799;23;20017;-79
2022/02/28 10:17:48;;;;;;;27.48;12.50;;;5.60;54.30;;;;;;6190277;23;20296;-80
2022/02/28 10:20:26;;;;;;;28.85;11.50;;;5.60;54.90;;;;;;6190204;23;20009;-79
2022/02/28 10:22:58;;;;;;;24.27;11.45;;;5.60;54.20;;;;;;6211392;23;20287;-79
2022/02/28 10:25:33;;;;;;;20.63;11.48;;;5.60;54.60;;;;;;6259426;22;20027;-80
2022/02/28 10:28:15;;;;;;;25.08;11.95;;;5.60;54.80;;;;;;6258525;22;20030;-80
2022/02/28 10:31:04;;;;;;;26.60;12.82;;;5.80;53.80;;;;;;6283523;22;20426;-80
2022/02/28 10:33:48;;;;;;;24.65;11.85;;;5.80;54.20;;;;;;6285685;22;20259;-78
2022/02/28 10:36:29;;;;;;;26.75;12.63;;;5.80;52.50;;;;;;6262590;22;20015;-78
2022/02/28 10:39:00;;;;;;;23.95;11.82;;;5.80;53.20;;;;;;6259298;22;20290;-78
2022/02/28 10:41:36;;;;;;;27.50;12.70;;;5.80;51.90;;;;;;6259038;22;20013;-79
2022/02/28 10:44:02;;;;;;;27.37;12.60;;;5.90;53.10;;;;;;6284226;22;20039;-78
2022/02/28 10:46:42;;;;;;;27.08;12.82;;;6.20;53.20;;;;;;6284546;22;20330;-80
2022/02/28 10:49:20;;;;;;;38.40;13.25;;;6.30;52.90;;;;;;6258809;22;20015;-78
2022/02/28 10:51:54;;;;;;;25.85;12.52;;;6.40;53.10;;;;;;6258408;22;20194;-79
2022/02/28 10:54:25;;;;;;;23.98;11.95;;;6.70;53.20;;;;;;6258935;22;20023;-78
2022/02/28 10:57:11;;;;;;;29.05;11.52;;;6.80;51.40;;;;;;6258205;22;20008;-79
2022/02/28 10:59:44;;;;;;;22.48;12.77;;;7.10;51.40;;;;;;6258239;22;20011;-79
2022/02/28 11:02:33;;;;;;;20.48;10.82;;;7.30;50.50;;;;;;6291939;22;20023;-79
2022/02/28 11:05:06;;;;;;;28.77;11.85;;;7.20;49.30;;;;;;6272339;22;20034;-79
2022/02/28 11:07:32;;;;;;;21.58;12.43;;;7.10;49.20;;;;;;6292624;22;20010;-79
2022/02/28 11:10:04;;;;;;;24.77;11.77;;;6.80;49.70;;;;;;6242693;22;20007;-79
2022/02/28 11:12:31;;;;;;;30.10;12.70;;;6.60;50.10;;;;;;6265332;22;20011;-79
2022/02/28 11:15:01;;;;;;;22.00;11.60;;;6.50;50.40;;;;;;6288966;22;20008;-79
2022/02/28 11:17:30;;;;;;;26.73;11.40;;;6.50;50.40;;;;;;6289055;22;20006;-79
2022/02/28 11:19:58;;;;;;;30.45;12.40;;;6.50;51.20;;;;;;6259986;22;20061;-79
2022/02/28 11:22:26;;;;;;;27.40;11.98;;;6.50;51.40;;;;;;6235858;22;20003;-79
2022/02/28 11:24:55;;;;;;;21.10;10.63;;;6.60;51.80;;;;;;6259071;22;20008;-80
2022/02/28 11:27:22;;;;;;;25.65;12.25;;;6.60;51.30;;;;;;6259394;22;20016;-78
2022/02/28 11:30:14;;;;;;;;;;;6.60;51.50;;;;;;6284467;22;20375;-79
2022/02/28 11:32:41;;;;;;;28.13;12.80;;;6.60;50.70;;;;;;6191650;23;20116;-79
2022/02/28 11:35:34;;;;;;;37.13;12.65;;;6.70;52.00;;;;;;6166842;23;20013;-79
2022/02/28 11:38:00;;;;;;;25.83;12.02;;;7.00;52.20;;;;;;6141597;23;20059;-79
2022/02/28 11:40:31;;;;;;;27.70;10.75;;;7.10;50.60;;;;;;6191807;23;20031;-79
2022/02/28 11:43:24;;;;;;;21.58;9.35;;;7.10;50.20;;;;;;6141484;23;20331;-79
2022/02/28 11:45:52;;;;;;;18.38;8.57;;;7.10;48.60;;;;;;6141917;23;20072;-80
2022/02/28 11:48:24;;;;;;;17.27;9.07;;;7.10;48.00;;;;;;6166597;23;20025;-80
2022/02/28 11:51:10;;;;;;;15.32;8.95;;;7.20;49.60;;;;;;6141993;23;20005;-79
2022/02/28 11:53:39;;;;;;;18.15;9.40;;;7.30;48.10;;;;;;6141552;23;20009;-80
2022/02/28 11:56:16;;;;;;;29.58;10.27;;;6.90;47.90;;;;;;6192578;23;20023;-79
2022/02/28 11:58:48;;;;;;;19.95;8.25;;;6.80;48.20;;;;;;6142258;23;20093;-79
2022/02/28 12:01:14;;;;;;;23.02;9.52;;;6.60;48.10;;;;;;6191477;23;20092;-79
2022/02/28 12:03:50;;;;;;;24.17;8.27;;;6.50;48.20;;;;;;6142370;23;20031;-79
2022/02/28 12:07:03;;;;;;;24.42;9.85;;;6.60;48.70;;;;;;6142670;23;20236;-81
2022/02/28 12:09:37;;;;;;;17.73;8.45;;;6.80;49.20;;;;;;6163399;23;20013;-79
2022/02/28 12:12:34;;;;;;;18.00;7.82;;;7.00;48.60;;;;;;6172284;23;20234;-79
2022/02/28 12:15:03;;;;;;;16.98;7.50;;;7.20;48.10;;;;;;6132170;23;20041;-79
2022/02/28 12:17:42;;;;;;;18.27;8.10;;;7.30;48.00;;;;;;6107728;23;20006;-79
2022/02/28 12:20:28;;;;;;;15.57;7.22;;;7.40;46.30;;;;;;6083574;23;20006;-79
2022/02/28 12:22:58;;;;;;;27.55;8.73;;;7.10;46.00;;;;;;6108236;23;20017;-78
2022/02/28 12:25:29;;;;;;;16.80;9.20;;;6.90;47.70;;;;;;6108302;23;20010;-79
2022/02/28 12:27:56;;;;;;;21.70;7.78;;;6.80;47.80;;;;;;6107941;23;20241;-80
2022/02/28 12:30:36;;;;;;;22.13;7.75;;;6.70;47.40;;;;;;6108265;23;20002;-79
2022/02/28 12:33:03;;;;;;;15.57;8.00;;;6.60;48.10;;;;;;6083886;23;20368;-81
2022/02/28 12:35:39;;;;;;;17.05;7.30;;;6.70;49.00;;;;;;6084110;23;20093;-80
2022/02/28 12:38:06;;;;;;;22.38;7.07;;;6.60;47.00;;;;;;6108413;23;20005;-80
2022/02/28 12:40:32;;;;;;;14.63;7.38;;;6.60;47.30;;;;;;6085399;23;20360;-80
2022/02/28 12:42:58;;;;;;;22.90;8.25;;;6.70;47.80;;;;;;6084512;23;20070;-81
2022/02/28 12:45:27;;;;;;;16.65;7.63;;;6.80;47.40;;;;;;6109229;23;20014;-80
2022/02/28 12:47:53;;;;;;;19.17;8.20;;;6.70;47.10;;;;;;6137532;23;20260;-80
2022/02/28 12:50:19;;;;;;;13.75;7.78;;;6.80;47.10;;;;;;6147981;22;20013;-79
2022/02/28 12:52:51;;;;;;;15.18;7.72;;;6.80;48.00;;;;;;6258961;22;20440;-79
2022/02/28 12:55:18;;;;;;;17.17;8.02;;;6.80;46.90;;;;;;6258726;22;20024;-80
2022/02/28 12:57:45;;;;;;;19.23;7.53;;;6.70;46.60;;;;;;6258688;22;20027;-80
2022/02/28 13:00:12;;;;;;;17.83;7.75;;;6.80;47.80;;;;;;6258281;22;20007;-80
2022/02/28 13:02:38;;;;;;;17.17;7.53;;;6.90;47.40;;;;;;6284155;22;20062;-80
2022/02/28 13:05:04;;;;;;;13.38;7.05;;;7.20;47.70;;;;;;6232803;22;20015;-80
2022/02/28 13:07:31;;;;;;;17.65;8.13;;;7.40;46.20;;;;;;6283615;22;20004;-80
2022/02/28 13:09:57;;;;;;;13.38;7.63;;;7.60;44.70;;;;;;6258722;22;20027;-80
2022/02/28 13:12:28;;;;;;;18.15;7.25;;;7.50;44.90;;;;;;6258394;22;20008;-80
2022/02/28 13:14:56;;;;;;;16.92;7.97;;;7.40;44.50;;;;;;6232840;22;20028;-80
2022/02/28 13:17:23;;;;;;;13.18;6.78;;;7.30;45.30;;;;;;6283601;22;20291;-80
2022/02/28 13:19:49;;;;;;;18.85;7.28;;;7.40;44.10;;;;;;6258261;22;20004;-78
2022/02/28 13:22:21;;;;;;;18.27;8.38;;;7.30;44.60;;;;;;6283083;22;20030;-81
2022/02/28 13:24:48;;;;;;;15.38;7.43;;;7.40;44.60;;;;;;6258149;22;20071;-79
2022/02/28 13:27:14;;;;;;;15.38;7.47;;;7.60;45.80;;;;;;6257934;22;20004;-79
2022/02/28 13:29:42;;;;;;;20.98;7.13;;;7.80;44.30;;;;;;6258322;22;20023;-79
2022/02/28 13:32:12;;;;;;;19.35;8.60;;;7.90;45.10;;;;;;6257845;22;20322;-80
2022/02/28 13:34:39;;;;;;;15.02;6.80;;;7.80;44.10;;;;;;6257782;22;20067;-79
2022/02/28 13:37:14;;;;;;;;;;;7.70;43.50;;;;;;6258382;22;20008;-80
2022/02/28 13:39:40;;;;;;;12.65;6.40;;;7.80;43.50;;;;;;6257923;22;19903;-79
2022/02/28 13:42:12;;;;;;;14.73;6.88;;;8.10;44.50;;;;;;6257843;22;20035;-80
2022/02/28 13:44:41;;;;;;;9.98;5.70;;;8.40;44.80;;;;;;6257776;22;20345;-78
2022/02/28 13:47:16;;;;;;;12.02;5.78;;;8.50;41.90;;;;;;6282956;22;20339;-78
2022/02/28 13:49:47;;;;;;;20.30;5.65;;;8.30;42.00;;;;;;6256202;22;20349;-79
2022/02/28 13:52:16;;;;;;;17.17;7.05;;;8.40;42.20;;;;;;6257093;22;20015;-79
2022/02/28 13:54:58;;;;;;;19.30;6.47;;;8.30;41.50;;;;;;6283200;22;20054;-79
2022/02/28 13:57:27;;;;;;;15.85;6.88;;;8.10;42.70;;;;;;6257057;22;20010;-79
2022/02/28 14:00:25;;;;;;;12.55;6.45;;;7.90;42.30;;;;;;6257343;22;20314;-79
2022/02/28 14:02:57;;;;;;;19.67;6.93;;;7.70;43.20;;;;;;6282467;22;20010;-79
2022/02/28 14:05:26;;;;;;;14.90;6.85;;;7.70;43.80;;;;;;6282826;22;20018;-79
2022/02/28 14:07:59;;;;;;;11.70;6.85;;;7.50;42.80;;;;;;6282838;22;20004;-79
2022/02/28 14:10:31;;;;;;;11.88;6.88;;;7.50;43.20;;;;;;6257540;22;20008;-78
2022/02/28 14:12:57;;;;;;;23.23;7.65;;;7.40;43.10;;;;;;6257162;22;20015;-80
2022/02/28 14:15:25;;;;;;;14.60;6.10;;;7.40;42.80;;;;;;6256803;22;20016;-79
2022/02/28 14:18:00;;;;;;;14.38;6.65;;;7.50;42.00;;;;;;6257044;22;20288;-78
2022/02/28 14:20:26;;;;;;;13.27;6.38;;;7.60;43.10;;;;;;6257527;22;20357;-79
2022/02/28 14:23:17;;;;;;;15.27;6.82;;;7.80;42.90;;;;;;6282720;22;20026;-80
2022/02/28 14:26:16;;;;;;;17.20;7.07;;;7.90;42.90;;;;;;6191114;23;20353;-79
2022/02/28 14:29:10;;;;;;;14.00;6.60;;;7.80;42.20;;;;;;6149032;23;20032;-80
2022/02/28 14:32:15;;;;;;;15.13;7.53;;;7.60;42.50;;;;;;6171965;23;20450;-80
2022/02/28 14:34:41;;;;;;;13.50;6.82;;;7.70;43.00;;;;;;6165827;23;20023;-80
2022/02/28 14:37:07;;;;;;;17.50;7.88;;;7.90;43.80;;;;;;6165395;23;20021;-79
2022/02/28 14:39:33;;;;;;;24.05;8.38;;;8.20;43.10;;;;;;6165666;23;20288;-79
2022/02/28 14:41:59;;;;;;;17.98;8.30;;;8.10;42.80;;;;;;6140755;23;20370;-79
2022/02/28 14:44:26;;;;;;;23.33;8.27;;;8.10;42.60;;;;;;6116856;23;20001;-79
2022/02/28 14:46:52;;;;;;;18.33;8.35;;;8.10;42.80;;;;;;6143050;23;20408;-79
2022/02/28 14:49:20;;;;;;;18.25;8.30;;;8.10;42.00;;;;;;6166835;23;20084;-79
2022/02/28 14:51:46;;;;;;;20.48;8.85;;;7.90;42.90;;;;;;6143200;23;20080;-79
2022/02/28 14:54:12;;;;;;;16.02;7.82;;;7.90;43.00;;;;;;6118035;23;20080;-79
2022/02/28 14:56:42;;;;;;;19.60;9.63;;;7.80;43.00;;;;;;6142841;23;20080;-79
2022/02/28 14:59:08;;;;;;;21.77;9.73;;;7.70;43.20;;;;;;6143339;23;20009;-79
2022/02/28 15:01:34;;;;;;;18.95;8.38;;;7.60;43.70;;;;;;6153649;22;20015;-79
2022/02/28 15:04:00;;;;;;;24.67;9.80;;;7.40;43.70;;;;;;6233508;22;20059;-80
2022/02/28 15:06:26;;;;;;;17.45;8.95;;;7.30;44.40;;;;;;6258400;22;20227;-80
2022/02/28 15:08:52;;;;;;;19.15;8.73;;;7.30;44.40;;;;;;6258806;22;20035;-80
2022/02/28 15:11:18;;;;;;;20.52;8.52;;;7.30;44.70;;;;;;6233511;22;20062;-80
2022/02/28 15:13:43;;;;;;;22.88;8.95;;;7.40;44.60;;;;;;6284256;22;20296;-80
2022/02/28 15:16:09;;;;;;;21.60;9.30;;;7.40;44.50;;;;;;6259156;22;20003;-79
2022/02/28 15:18:35;;;;;;;38.78;9.52;;;7.50;45.30;;;;;;6258598;22;20007;-80
2022/02/28 15:21:01;;;;;;;25.48;9.77;;;7.40;44.00;;;;;;6233268;22;20003;-79
2022/02/28 15:23:27;;;;;;;19.15;8.80;;;7.30;44.30;;;;;;6259242;22;20059;-79
2022/02/28 15:25:53;;;;;;;25.30;10.07;;;7.30;44.70;;;;;;6259069;22;20012;-80
2022/02/28 15:28:18;;;;;;;25.17;11.38;;;7.30;44.80;;;;;;6284602;22;20015;-80
2022/02/28 15:30:46;;;;;;;17.75;9.23;;;7.20;44.90;;;;;;6258935;22;20011;-79
2022/02/28 15:33:12;;;;;;;18.45;9.48;;;7.30;44.70;;;;;;6284256;22;20200;-80
2022/02/28 15:35:38;;;;;;;23.58;9.68;;;7.30;44.70;;;;;;6234017;22;20033;-80
2022/02/28 15:38:04;;;;;;;27.85;9.40;;;7.40;44.50;;;;;;6258961;22;20016;-80
2022/02/28 15:40:30;;;;;;;38.50;10.13;;;7.30;44.70;;;;;;6233865;22;20008;-80
2022/02/28 15:42:56;;;;;;;23.35;9.27;;;7.40;45.50;;;;;;6284769;22;20295;-80
2022/02/28 15:45:24;;;;;;;22.88;9.68;;;7.30;45.10;;;;;;6259276;22;20256;-80
2022/02/28 15:47:50;;;;;;;26.90;9.70;;;7.20;45.40;;;;;;6259416;22;20022;-80
2022/02/28 15:50:18;;;;;;;23.30;9.45;;;7.20;45.30;;;;;;6284603;22;20016;-81
2022/02/28 15:52:44;;;;;;;21.42;9.07;;;7.00;45.60;;;;;;6258648;22;20012;-80
2022/02/28 15:55:11;;;;;;;23.92;10.18;;;6.90;46.00;;;;;;6284437;22;20019;-79
2022/02/28 15:57:37;;;;;;;30.63;9.73;;;6.90;46.30;;;;;;6284709;22;20211;-81
2022/02/28 16:00:09;;;;;;;19.63;9.43;;;6.70;47.00;;;;;;6259112;22;20004;-80
2022/02/28 16:02:40;;;;;;;17.48;8.35;;;6.40;47.30;;;;;;6284721;22;20007;-79
2022/02/28 16:05:06;;;;;;;24.00;9.68;;;6.30;48.00;;;;;;6233912;22;20250;-79
2022/02/28 16:07:33;;;;;;;16.60;8.30;;;6.20;48.20;;;;;;6258951;22;20007;-78
2022/02/28 16:10:05;;;;;;;23.10;11.55;;;6.10;48.40;;;;;;6234078;22;20247;-79
2022/02/28 16:12:33;;;;;;;21.20;9.93;;;6.00;48.60;;;;;;6284870;22;20307;-79
2022/02/28 16:15:00;;;;;;;21.38;9.50;;;5.90;48.80;;;;;;6234030;22;20039;-79
2022/02/28 16:17:26;;;;;;;21.30;9.80;;;5.90;48.90;;;;;;6284494;22;19987;-79
2022/02/28 16:19:52;;;;;;;22.92;9.48;;;5.80;49.00;;;;;;6233486;22;20299;-78
2022/02/28 16:22:17;;;;;;;17.95;8.60;;;5.70;49.30;;;;;;6233332;22;20054;-79
2022/02/28 16:24:45;;;;;;;19.77;9.63;;;5.70;49.70;;;;;;6283560;22;20011;-80
2022/02/28 16:27:11;;;;;;;;;;;5.60;49.80;;;;;;6234006;22;20012;-79
2022/02/28 16:29:37;;;;;;;17.05;7.60;;;5.50;50.10;;;;;;6284619;22;20137;-79
2022/02/28 16:32:04;;;;;;;24.42;8.70;;;5.50;50.00;;;;;;6258472;22;20008;-78
2022/02/28 16:34:29;;;;;;;25.55;9.52;;;5.50;50.20;;;;;;6283960;22;20017;-78
2022/02/28 16:36:55;;;;;;;19.83;7.93;;;5.40;50.50;;;;;;6284399;22;19999;-79
2022/02/28 16:39:22;;;;;;;17.92;8.20;;;5.40;50.40;;;;;;6258027;22;20014;-80
2022/02/28 16:41:48;;;;;;;;;;;5.30;50.40;;;;;;6259284;22;20321;-78